createdAt,value
2022-08-20T00:04:21.317Z,2.91
2022-08-20T00:09:28.315Z,2.80
2022-08-20T00:14:34.972Z,2.76
2022-08-20T00:19:43.057Z,2.73
2022-08-20T00:24:50.132Z,3.04
2022-08-20T00:29:57.087Z,2.91
2022-08-20T00:35:04.162Z,2.69
2022-08-20T00:40:22.510Z,3.19
2022-08-20T00:45:17.683Z,3.49
2022-08-20T00:50:24.662Z,3.20
2022-08-20T00:55:31.861Z,3.88
2022-08-20T01:00:38.792Z,3.80
2022-08-20T01:05:45.806Z,4.07
2022-08-20T01:10:52.952Z,3.23
2022-08-20T01:15:59.926Z,3.19
2022-08-20T01:21:06.953Z,3.42
2022-08-20T01:26:13.899Z,3.18
2022-08-20T01:31:20.916Z,3.54
2022-08-20T01:36:27.859Z,3.45
2022-08-20T01:41:34.978Z,3.18
2022-08-20T01:46:44.141Z,3.26
2022-08-20T01:51:48.939Z,3.45
2022-08-20T01:56:55.123Z,3.04
2022-08-20T02:02:02.102Z,2.95
2022-08-20T02:07:09.211Z,3.33
2022-08-20T02:12:16.169Z,3.75
2022-08-20T02:17:23.306Z,3.19
2022-08-20T02:22:30.328Z,3.36
2022-08-20T02:27:37.422Z,3.45
2022-08-20T02:32:44.426Z,3.13
2022-08-20T02:37:51.454Z,3.46
2022-08-20T02:42:58.379Z,3.54
2022-08-20T02:48:05.364Z,3.58
2022-08-20T02:53:12.304Z,3.69
2022-08-20T02:58:19.274Z,3.30
2022-08-20T03:03:26.229Z,3.19
2022-08-20T03:08:33.333Z,3.57
2022-08-20T03:13:40.268Z,3.96
2022-08-20T03:18:47.266Z,3.77
2022-08-20T03:23:54.184Z,3.76
2022-08-20T03:29:01.151Z,4.69
2022-08-20T03:34:08.091Z,4.75
2022-08-20T03:39:15.264Z,4.35
2022-08-20T03:44:22.284Z,3.61
2022-08-20T03:49:29.394Z,2.98
2022-08-20T03:54:36.355Z,2.82
2022-08-20T03:59:43.490Z,3.39
2022-08-20T04:04:50.422Z,3.33
2022-08-20T04:09:57.519Z,3.64
2022-08-20T04:15:04.451Z,3.75
2022-08-20T04:20:11.104Z,3.48
2022-08-20T04:25:17.567Z,5.06
2022-08-20T04:30:24.181Z,5.25
2022-08-20T04:35:31.142Z,5.13
2022-08-20T04:40:38.257Z,4.46
2022-08-20T04:45:45.258Z,4.69
2022-08-20T04:50:52.290Z,5.22
2022-08-20T04:55:58.835Z,4.43
2022-08-20T05:01:05.940Z,5.15
2022-08-20T05:06:12.867Z,5.00
2022-08-20T05:11:33.808Z,5.17
2022-08-20T05:16:26.474Z,5.16
2022-08-20T05:21:33.654Z,5.84
2022-08-20T05:26:40.644Z,5.95
2022-08-20T05:31:47.696Z,5.58
2022-08-20T05:36:55.354Z,5.73
2022-08-20T05:42:02.467Z,5.82
2022-08-20T05:47:09.411Z,4.98
2022-08-20T05:52:16.060Z,4.43
2022-08-20T05:57:22.992Z,3.98
2022-08-20T06:02:30.247Z,3.97
2022-08-20T06:07:37.223Z,3.36
2022-08-20T06:12:44.483Z,3.50
2022-08-20T06:17:58.496Z,3.29
2022-08-20T06:22:58.157Z,3.79
2022-08-20T06:28:05.161Z,4.06
2022-08-20T06:33:12.298Z,3.57
2022-08-20T06:38:19.282Z,3.48
2022-08-20T06:43:26.359Z,3.84
2022-08-20T06:48:33.415Z,3.58
2022-08-20T06:53:40.767Z,3.86
2022-08-20T06:58:47.904Z,4.18
2022-08-20T07:03:56.255Z,5.14
2022-08-20T07:09:01.603Z,4.69
2022-08-20T07:14:08.533Z,3.93
2022-08-20T07:19:15.961Z,2.91
2022-08-20T07:24:22.971Z,2.64
2022-08-20T07:29:29.914Z,2.13
2022-08-20T07:34:36.880Z,1.76
2022-08-20T07:39:43.511Z,2.06
2022-08-20T07:44:50.508Z,1.64
2022-08-20T07:49:57.560Z,1.64
2022-08-20T07:55:04.568Z,1.38
2022-08-20T08:00:11.631Z,1.49
2022-08-20T08:05:18.551Z,1.48
2022-08-20T08:10:25.609Z,1.40
2022-08-20T08:15:32.743Z,1.26
2022-08-20T08:20:46.654Z,1.47
2022-08-20T08:25:46.437Z,1.57
2022-08-20T08:30:53.598Z,1.51
2022-08-20T08:36:00.560Z,1.49
2022-08-20T08:41:07.718Z,1.65
2022-08-20T08:46:14.655Z,1.61
2022-08-20T08:51:21.818Z,1.69
2022-08-20T08:56:28.716Z,1.48
2022-08-20T09:01:54.322Z,1.61
2022-08-20T09:06:42.547Z,1.50
2022-08-20T09:11:49.691Z,1.50
2022-08-20T09:16:56.716Z,1.24
2022-08-20T09:22:03.706Z,1.37
2022-08-20T09:27:10.746Z,1.23
2022-08-20T09:32:17.659Z,1.16
2022-08-20T09:37:24.758Z,1.36
2022-08-20T09:42:31.737Z,1.27
2022-08-20T09:47:38.901Z,1.49
2022-08-20T09:52:45.328Z,1.41
2022-08-20T09:57:52.355Z,1.40
2022-08-20T10:02:59.276Z,1.48
2022-08-20T10:08:06.207Z,1.69
2022-08-20T10:13:13.388Z,1.58
2022-08-20T10:18:19.804Z,1.70
2022-08-20T10:23:26.729Z,1.84
2022-08-20T10:28:33.671Z,1.60
2022-08-20T10:33:40.590Z,1.39
2022-08-20T10:38:47.554Z,1.40
2022-08-20T10:43:54.479Z,1.23
2022-08-20T10:49:01.539Z,1.22
2022-08-20T10:54:12.250Z,1.13
2022-08-20T10:59:15.174Z,1.10
2022-08-20T11:04:22.148Z,1.27
2022-08-20T11:09:29.153Z,1.17
2022-08-20T11:14:36.063Z,1.20
2022-08-20T11:19:43.025Z,1.11
2022-08-20T11:24:49.958Z,1.13
2022-08-20T11:29:57.076Z,1.07
2022-08-20T11:35:18.820Z,1.01
2022-08-20T11:40:10.831Z,0.97
2022-08-20T11:45:17.668Z,1.21
2022-08-20T11:50:24.685Z,1.16
2022-08-20T11:55:32.567Z,1.01
2022-08-20T12:00:38.338Z,0.92
2022-08-20T12:05:45.450Z,1.15
2022-08-20T12:10:51.924Z,1.08
2022-08-20T12:15:59.005Z,1.12
2022-08-20T12:21:05.933Z,1.02
2022-08-20T12:26:13.023Z,1.01
2022-08-20T12:31:19.964Z,0.94
2022-08-20T12:36:27.177Z,0.96
2022-08-20T12:41:34.167Z,0.88
2022-08-20T12:46:41.349Z,0.96
2022-08-20T12:51:48.299Z,0.94
2022-08-20T12:56:55.495Z,0.96
2022-08-20T13:02:14.043Z,0.91
2022-08-20T13:07:09.391Z,0.89
2022-08-20T13:12:15.545Z,1.09
2022-08-20T13:17:39.154Z,0.90
2022-08-20T13:22:29.325Z,0.97
2022-08-20T13:27:36.362Z,1.16
2022-08-20T13:32:43.398Z,1.04
2022-08-20T13:37:50.527Z,1.22
2022-08-20T13:42:57.751Z,1.13
2022-08-20T13:48:04.851Z,1.29
2022-08-20T13:53:11.438Z,1.36
2022-08-20T13:58:18.455Z,1.07
2022-08-20T14:03:25.791Z,1.16
2022-08-20T14:08:32.073Z,1.14
2022-08-20T14:13:39.007Z,1.20
2022-08-20T14:18:47.974Z,1.00
2022-08-20T14:23:52.590Z,1.29
2022-08-20T14:28:59.817Z,1.00
2022-08-20T14:34:06.763Z,0.93
2022-08-20T14:39:17.357Z,0.91
2022-08-20T14:44:20.508Z,0.88
2022-08-20T14:49:27.782Z,0.91
2022-08-20T14:54:34.730Z,1.07
2022-08-20T14:59:41.837Z,0.83
2022-08-20T15:04:54.436Z,0.88
2022-08-20T15:09:55.437Z,0.91
2022-08-20T15:15:13.269Z,1.12
2022-08-20T15:20:09.102Z,0.89
2022-08-20T15:25:15.636Z,1.07
2022-08-20T15:30:22.751Z,1.11
2022-08-20T15:35:29.765Z,1.02
2022-08-20T15:40:36.814Z,0.97
2022-08-20T15:45:43.792Z,0.87
2022-08-20T15:50:51.915Z,1.02
2022-08-20T15:55:58.973Z,1.10
2022-08-20T16:01:23.907Z,2.04
2022-08-20T16:06:13.674Z,14.78
2022-08-20T16:11:18.987Z,6.18
2022-08-20T16:16:26.113Z,1.13
2022-08-20T16:21:33.144Z,0.74
2022-08-20T16:26:40.365Z,0.90
2022-08-20T16:31:47.302Z,0.85
2022-08-20T16:36:56.930Z,0.80
2022-08-20T16:42:00.462Z,0.69
2022-08-20T16:47:13.818Z,0.81
2022-08-20T16:52:13.616Z,0.69
2022-08-20T16:57:20.550Z,0.62
2022-08-20T17:02:27.581Z,0.60
2022-08-20T17:07:34.532Z,0.71
2022-08-20T17:12:41.603Z,0.68
2022-08-20T17:17:48.622Z,0.51
2022-08-20T17:22:55.750Z,0.60
2022-08-20T17:28:02.700Z,0.72
2022-08-20T17:33:12.022Z,0.75
2022-08-20T17:38:18.984Z,0.70
2022-08-20T17:43:26.329Z,0.49
2022-08-20T17:48:33.362Z,0.87
2022-08-20T17:53:39.892Z,0.61
2022-08-20T17:58:54.462Z,0.87
2022-08-20T18:03:53.765Z,0.88
2022-08-20T18:09:00.799Z,0.95
2022-08-20T18:14:07.887Z,1.20
2022-08-20T18:19:14.801Z,0.89
2022-08-20T18:24:21.805Z,0.81
2022-08-20T18:29:28.763Z,1.43
2022-08-20T18:34:35.863Z,1.13
2022-08-20T18:39:42.880Z,0.97
2022-08-20T18:44:50.025Z,0.80
2022-08-20T18:49:56.532Z,0.81
2022-08-20T18:55:03.602Z,0.96
2022-08-20T19:00:10.167Z,1.39
2022-08-20T19:05:17.266Z,1.54
2022-08-20T19:10:28.113Z,1.57
2022-08-20T19:15:31.050Z,1.68
2022-08-20T19:20:38.062Z,1.73
2022-08-20T19:25:45.187Z,1.87
2022-08-20T19:30:52.181Z,1.80
2022-08-20T19:35:59.369Z,2.70
2022-08-20T19:41:11.286Z,2.23
2022-08-20T19:46:12.915Z,2.22
2022-08-20T19:51:20.035Z,2.16
2022-08-20T19:56:26.551Z,2.07
2022-08-20T20:01:33.674Z,2.00
2022-08-20T20:06:40.568Z,2.39
2022-08-20T20:11:47.711Z,2.47
2022-08-20T20:16:54.704Z,2.00
2022-08-20T20:22:01.535Z,2.25
2022-08-20T20:27:08.502Z,1.86
2022-08-20T20:32:15.071Z,1.99
2022-08-20T20:37:25.363Z,1.64
2022-08-20T20:42:28.724Z,1.61
2022-08-20T20:47:36.008Z,1.53
2022-08-20T20:52:42.711Z,1.48
2022-08-20T20:57:49.838Z,1.70
2022-08-20T21:02:57.019Z,1.62
2022-08-20T21:08:03.916Z,1.57
2022-08-20T21:13:11.045Z,1.43
2022-08-20T21:18:17.981Z,1.29
2022-08-20T21:23:41.631Z,1.50
2022-08-20T21:28:31.622Z,1.52
2022-08-20T21:33:38.770Z,1.13
2022-08-20T21:38:45.700Z,1.03
2022-08-20T21:43:52.931Z,1.27
2022-08-20T21:48:59.835Z,1.22
2022-08-20T21:54:06.283Z,1.17
2022-08-20T21:59:13.246Z,1.18
2022-08-20T22:04:20.307Z,1.17
2022-08-20T22:09:27.213Z,1.05
2022-08-20T22:14:34.316Z,0.98
2022-08-20T22:19:41.293Z,1.24
2022-08-20T22:24:48.333Z,1.02
2022-08-20T22:29:56.091Z,1.08
2022-08-20T22:35:01.805Z,1.00
2022-08-20T22:40:08.836Z,1.15
2022-08-20T22:45:15.920Z,1.08
2022-08-20T22:50:22.856Z,1.47
2022-08-20T22:55:29.935Z,1.17
2022-08-20T23:00:36.931Z,0.98
2022-08-20T23:05:43.905Z,1.28
2022-08-20T23:10:51.173Z,1.64
2022-08-20T23:15:57.511Z,1.23
2022-08-20T23:21:04.664Z,0.99
2022-08-20T23:26:11.640Z,1.14
2022-08-20T23:31:18.798Z,1.17
2022-08-20T23:36:25.758Z,1.11
2022-08-20T23:41:32.792Z,1.49
2022-08-20T23:46:39.788Z,1.52
2022-08-20T23:51:46.885Z,1.27
2022-08-20T23:56:56.894Z,1.38
